Time;durP1;ratioP1;P1;durP2;ratioP2;P2;SDS_P1;SDS_P2;PMS_P1;PMS_P2;Temp;Humidity;BMP_temperature;BMP_pressure;BME280_temperature;BME280_humidity;BME280_pressure;Samples;Min_cycle;Max_cycle;Signal;HPM_P1;HPM_P2
2024/03/22 00:04:15;;;;;;;;;31.25;27.25;;;;;;;;6489643;39;8930;-60
2024/03/22 00:10:16;;;;;;;;;37.00;31.00;;;;;;;;6490054;31;8967;-58
2024/03/22 00:16:17;;;;;;;;;31.75;28.75;;;;;;;;6490316;31;9036;-60
2024/03/22 00:22:22;;;;;;;;;35.50;30.50;;;;;;;;6489933;46;8943;-59
2024/03/22 00:28:24;;;;;;;;;29.50;26.25;;;;;;;;6490520;31;8960;-59
2024/03/22 00:34:29;;;;;;;;;29.75;26.75;;;;;;;;6489997;46;8873;-60
2024/03/22 00:40:30;;;;;;;;;37.25;30.25;;;;;;;;6489117;46;8877;-60
2024/03/22 00:46:31;;;;;;;;;20.75;17.50;;;;;;;;6490034;39;9563;-59
2024/03/22 00:52:32;;;;;;;;;38.25;33.25;;;;;;;;6490013;39;8943;-60
2024/03/22 00:58:34;;;;;;;;;33.50;29.75;;;;;;;;6489406;39;8965;-60
2024/03/22 01:04:35;;;;;;;;;33.50;30.75;;;;;;;;6490045;39;8948;-60
2024/03/22 01:10:37;;;;;;;;;33.00;32.00;;;;;;;;6490217;39;8949;-59
2024/03/22 01:16:39;;;;;;;;;38.25;29.50;;;;;;;;6489864;31;8920;-60
2024/03/22 01:22:41;;;;;;;;;34.25;28.50;;;;;;;;6489677;39;9553;-59
2024/03/22 01:28:42;;;;;;;;;36.00;29.00;;;;;;;;6488963;39;9235;-59
2024/03/22 01:34:43;;;;;;;;;41.00;29.00;;;;;;;;6489594;39;9072;-60
2024/03/22 01:40:45;;;;;;;;;43.00;32.25;;;;;;;;6488583;47;8912;-59
2024/03/22 01:46:48;;;;;;;;;37.00;36.25;;;;;;;;6488705;46;8885;-61
2024/03/22 01:52:55;;;;;;;;;27.00;25.75;;;;;;;;6488572;31;8997;-59
2024/03/22 01:58:56;;;;;;;;;30.75;28.50;;;;;;;;6488698;39;9097;-60
2024/03/22 02:04:57;;;;;;;;;38.00;33.25;;;;;;;;6488419;39;8889;-60
2024/03/22 02:10:58;;;;;;;;;43.50;37.75;;;;;;;;6491226;39;8945;-58
2024/03/22 02:16:59;;;;;;;;;43.50;37.00;;;;;;;;6489947;46;8959;-60
2024/03/22 02:23:00;;;;;;;;;39.25;37.25;;;;;;;;6491310;39;8881;-59
2024/03/22 02:29:02;;;;;;;;;38.50;36.00;;;;;;;;6490436;39;8988;-59
2024/03/22 02:35:03;;;;;;;;;42.50;37.50;;;;;;;;6490688;46;8901;-60
2024/03/22 02:41:06;;;;;;;;;35.25;35.25;;;;;;;;6490484;46;8841;-59
2024/03/22 02:47:07;;;;;;;;;42.75;39.75;;;;;;;;6491103;39;8857;-60
2024/03/22 02:53:08;;;;;;;;;42.75;37.25;;;;;;;;6490519;39;8917;-60
2024/03/22 02:59:10;;;;;;;;;47.25;41.00;;;;;;;;6490251;31;8841;-59
2024/03/22 03:05:11;;;;;;;;;78.00;58.75;;;;;;;;6490447;39;8913;-59
2024/03/22 03:11:14;;;;;;;;;65.00;53.00;;;;;;;;6490519;39;8857;-59
2024/03/22 03:17:16;;;;;;;;;59.75;44.50;;;;;;;;6490297;39;9148;-60
2024/03/22 03:23:17;;;;;;;;;57.00;43.75;;;;;;;;6490465;39;8892;-59
2024/03/22 03:29:19;;;;;;;;;44.50;33.75;;;;;;;;6489818;39;9788;-59
2024/03/22 03:35:21;;;;;;;;;48.50;40.50;;;;;;;;6490159;46;8925;-59
2024/03/22 03:41:23;;;;;;;;;41.25;38.75;;;;;;;;6490332;39;8952;-59
2024/03/22 03:47:24;;;;;;;;;43.25;41.25;;;;;;;;6489775;39;9329;-61
2024/03/22 03:53:26;;;;;;;;;55.50;44.75;;;;;;;;6489022;46;8913;-59
2024/03/22 03:59:29;;;;;;;;;41.33;38.67;;;;;;;;6489203;31;9495;-59
2024/03/22 04:05:31;;;;;;;;;50.25;41.75;;;;;;;;6461675;39;8999;-56
2024/03/22 04:11:33;;;;;;;;;48.00;40.00;;;;;;;;6494128;39;8824;-56
2024/03/22 04:17:35;;;;;;;;;45.50;41.25;;;;;;;;6492767;39;8987;-57
2024/03/22 04:23:38;;;;;;;;;54.75;44.75;;;;;;;;6493503;39;9531;-57
2024/03/22 04:29:38;;;;;;;;;51.00;44.00;;;;;;;;6493467;39;8872;-55
2024/03/22 04:35:45;;;;;;;;;55.50;44.25;;;;;;;;6492415;31;9519;-57
2024/03/22 04:41:46;;;;;;;;;55.50;46.00;;;;;;;;6493538;39;8841;-56
2024/03/22 04:47:48;;;;;;;;;61.75;46.25;;;;;;;;6492784;39;8931;-57
2024/03/22 04:53:52;;;;;;;;;55.50;46.50;;;;;;;;6492955;46;9007;-56
2024/03/22 04:59:53;;;;;;;;;60.25;47.50;;;;;;;;6492903;46;8876;-57
2024/03/22 05:05:58;;;;;;;;;61.75;48.25;;;;;;;;6492691;39;8926;-58
2024/03/22 05:11:59;;;;;;;;;61.75;48.75;;;;;;;;6493413;39;8886;-56
2024/03/22 05:18:02;;;;;;;;;51.75;45.50;;;;;;;;6492833;31;9556;-57
2024/03/22 05:24:05;;;;;;;;;58.67;46.00;;;;;;;;6492997;31;8850;-57
2024/03/22 05:30:07;;;;;;;;;62.75;45.75;;;;;;;;6493715;39;8901;-58
2024/03/22 05:36:08;;;;;;;;;61.75;50.75;;;;;;;;6490413;39;9094;-58
2024/03/22 05:42:10;;;;;;;;;52.25;44.00;;;;;;;;6493711;46;8955;-56
2024/03/22 05:48:12;;;;;;;;;47.00;41.50;;;;;;;;6493551;31;8894;-58
2024/03/22 05:54:13;;;;;;;;;33.75;33.75;;;;;;;;6493791;39;9568;-58
2024/03/22 06:00:16;;;;;;;;;56.50;43.50;;;;;;;;6494018;46;8900;-55
2024/03/22 06:06:17;;;;;;;;;59.25;47.00;;;;;;;;6491101;46;9071;-58
2024/03/22 06:12:21;;;;;;;;;56.25;45.00;;;;;;;;6492777;39;8915;-58
2024/03/22 06:18:22;;;;;;;;;54.75;45.00;;;;;;;;6492140;39;9027;-58
2024/03/22 06:24:23;;;;;;;;;49.25;43.50;;;;;;;;6539039;36;8934;-58
2024/03/22 06:30:24;;;;;;;;;54.25;46.25;;;;;;;;6492326;46;8870;-57
2024/03/22 06:36:26;;;;;;;;;41.00;36.25;;;;;;;;6470582;39;9063;-58
2024/03/22 06:42:28;;;;;;;;;60.25;46.75;;;;;;;;6492871;39;9521;-55
2024/03/22 06:48:32;;;;;;;;;43.00;39.00;;;;;;;;6492046;31;8985;-58
2024/03/22 06:54:34;;;;;;;;;53.25;42.75;;;;;;;;6491306;46;8915;-58
2024/03/22 07:00:36;;;;;;;;;47.25;40.75;;;;;;;;6492925;31;9038;-57
2024/03/22 07:06:39;;;;;;;;;43.75;36.75;;;;;;;;6491603;46;8945;-57
2024/03/22 07:12:41;;;;;;;;;47.00;37.00;;;;;;;;6491527;31;8855;-57
2024/03/22 07:18:44;;;;;;;;;41.75;38.50;;;;;;;;6491783;39;9749;-58
2024/03/22 07:24:47;;;;;;;;;39.25;35.25;;;;;;;;6491150;39;8977;-59
2024/03/22 07:30:48;;;;;;;;;40.75;36.25;;;;;;;;6489631;46;9389;-58
2024/03/22 07:36:49;;;;;;;;;26.25;23.75;;;;;;;;6491656;39;8960;-59
2024/03/22 07:42:53;;;;;;;;;35.25;30.25;;;;;;;;6489562;46;8935;-59
2024/03/22 07:48:54;;;;;;;;;36.00;33.25;;;;;;;;6490951;46;8890;-58
2024/03/22 07:54:55;;;;;;;;;37.50;34.25;;;;;;;;6488278;46;8923;-58
2024/03/22 08:00:57;;;;;;;;;34.75;29.75;;;;;;;;6489512;46;8905;-56
2024/03/22 08:07:02;;;;;;;;;28.00;23.75;;;;;;;;6488267;39;8943;-60
2024/03/22 08:13:03;;;;;;;;;22.00;20.00;;;;;;;;6490066;39;8918;-59
2024/03/22 08:19:05;;;;;;;;;31.25;29.50;;;;;;;;6489366;39;8836;-58
2024/03/22 08:25:08;;;;;;;;;22.75;22.75;;;;;;;;6490287;39;9617;-58
2024/03/22 08:31:10;;;;;;;;;26.50;25.25;;;;;;;;6489221;39;9591;-59
2024/03/22 08:37:11;;;;;;;;;29.75;28.00;;;;;;;;6488787;46;8862;-57
2024/03/22 08:43:14;;;;;;;;;28.50;23.00;;;;;;;;6490566;39;8928;-58
2024/03/22 08:49:19;;;;;;;;;32.25;26.50;;;;;;;;6489607;46;8903;-59
2024/03/22 08:55:21;;;;;;;;;28.25;24.50;;;;;;;;6487570;46;9059;-60
2024/03/22 09:01:22;;;;;;;;;31.75;28.75;;;;;;;;6487856;39;9052;-58
2024/03/22 09:07:24;;;;;;;;;22.00;19.00;;;;;;;;6487965;39;9682;-60
2024/03/22 09:13:26;;;;;;;;;27.50;25.50;;;;;;;;6487951;47;8948;-58
2024/03/22 09:19:28;;;;;;;;;29.25;24.75;;;;;;;;6490239;46;8959;-57
2024/03/22 09:25:30;;;;;;;;;21.33;21.33;;;;;;;;6491833;39;8956;-60
2024/03/22 09:31:32;;;;;;;;;23.00;20.50;;;;;;;;6399333;39;5001906;-56
2024/03/22 09:37:34;;;;;;;;;13.33;8.33;;;;;;;;6491182;46;8939;-58
2024/03/22 09:43:37;;;;;;;;;28.00;22.67;;;;;;;;6491160;39;9026;-58
2024/03/22 09:49:40;;;;;;;;;22.33;21.67;;;;;;;;6491363;31;8952;-59
2024/03/22 09:55:45;;;;;;;;;30.00;26.25;;;;;;;;6491378;39;9697;-62
2024/03/22 10:01:47;;;;;;;;;26.50;21.50;;;;;;;;6491380;39;8979;-59
2024/03/22 10:07:49;;;;;;;;;30.33;26.67;;;;;;;;6488865;46;9046;-61
2024/03/22 10:13:55;;;;;;;;;28.00;27.00;;;;;;;;6490337;39;8956;-61
2024/03/22 10:19:57;;;;;;;;;27.75;25.75;;;;;;;;6488455;46;8928;-60
2024/03/22 10:26:03;;;;;;;;;32.75;30.75;;;;;;;;6488703;46;8955;-61
2024/03/22 10:32:06;;;;;;;;;29.50;22.50;;;;;;;;6490150;46;8913;-62
2024/03/22 10:38:12;;;;;;;;;31.25;22.75;;;;;;;;6488060;31;9677;-60
2024/03/22 10:44:18;;;;;;;;;33.67;30.00;;;;;;;;6490035;31;9029;-59
2024/03/22 10:50:29;;;;;;;;;28.25;25.25;;;;;;;;6490492;39;8935;-61
2024/03/22 10:56:35;;;;;;;;;26.33;23.00;;;;;;;;6487584;39;8964;-62
2024/03/22 11:02:45;;;;;;;;;27.00;27.00;;;;;;;;6489022;39;9154;-60
2024/03/22 11:08:51;;;;;;;;;30.00;23.67;;;;;;;;6488005;39;8913;-61
2024/03/22 11:14:55;;;;;;;;;27.33;25.00;;;;;;;;6489620;31;8933;-60
2024/03/22 11:21:03;;;;;;;;;27.33;22.33;;;;;;;;6489370;31;8986;-60
2024/03/22 11:27:06;;;;;;;;;16.67;16.67;;;;;;;;6488209;39;8943;-59
2024/03/22 11:33:10;;;;;;;;;25.67;25.67;;;;;;;;6489182;39;9017;-61
2024/03/22 11:39:14;;;;;;;;;26.00;24.00;;;;;;;;6488988;46;8899;-60
2024/03/22 11:45:20;;;;;;;;;29.00;27.33;;;;;;;;6490160;31;8982;-61
2024/03/22 11:51:24;;;;;;;;;22.00;21.33;;;;;;;;6489246;46;8910;-60
2024/03/22 11:57:28;;;;;;;;;25.00;21.33;;;;;;;;6487373;39;9071;-61
2024/03/22 12:03:32;;;;;;;;;26.67;22.67;;;;;;;;6488423;31;9027;-60
2024/03/22 12:09:35;;;;;;;;;23.33;18.33;;;;;;;;6487879;46;9074;-59
2024/03/22 12:15:37;;;;;;;;;20.33;20.33;;;;;;;;6489211;39;8969;-61
2024/03/22 12:21:39;;;;;;;;;24.67;22.00;;;;;;;;6490799;39;8913;-60
2024/03/22 12:27:42;;;;;;;;;23.67;21.33;;;;;;;;6489896;39;8934;-59
2024/03/22 12:33:45;;;;;;;;;24.67;23.00;;;;;;;;6489414;46;8934;-60
2024/03/22 12:39:47;;;;;;;;;26.33;23.00;;;;;;;;6489115;46;8964;-60
2024/03/22 12:45:50;;;;;;;;;20.67;20.00;;;;;;;;6489433;46;8908;-60
2024/03/22 12:51:52;;;;;;;;;36.67;33.00;;;;;;;;6489017;31;9139;-59
2024/03/22 12:57:54;;;;;;;;;20.33;16.33;;;;;;;;6489505;31;9046;-60
2024/03/22 13:03:55;;;;;;;;;24.33;20.00;;;;;;;;6490634;31;8950;-59
2024/03/22 13:10:00;;;;;;;;;20.00;20.00;;;;;;;;6489384;39;9017;-59
2024/03/22 13:16:02;;;;;;;;;9.33;8.33;;;;;;;;6488627;39;9080;-58
2024/03/22 13:22:04;;;;;;;;;20.00;19.00;;;;;;;;6489727;31;8911;-60
2024/03/22 13:28:07;;;;;;;;;35.67;32.33;;;;;;;;6488687;39;8932;-59
2024/03/22 13:34:09;;;;;;;;;27.00;25.00;;;;;;;;6488925;46;8935;-59
2024/03/22 13:40:13;;;;;;;;;17.33;15.00;;;;;;;;6489858;31;8922;-59
2024/03/22 13:46:17;;;;;;;;;18.67;18.67;;;;;;;;6488191;39;9544;-59
2024/03/22 13:52:22;;;;;;;;;27.00;25.33;;;;;;;;6489460;39;8913;-60
2024/03/22 13:58:24;;;;;;;;;23.75;20.25;;;;;;;;6489907;39;9110;-59
2024/03/22 14:04:29;;;;;;;;;24.25;22.50;;;;;;;;6490908;39;9741;-60
2024/03/22 14:10:35;;;;;;;;;20.67;20.33;;;;;;;;6489121;46;9034;-58
2024/03/22 14:16:38;;;;;;;;;21.33;18.33;;;;;;;;6487493;39;8952;-58
2024/03/22 14:22:48;;;;;;;;;18.67;18.67;;;;;;;;6488445;39;8943;-58
2024/03/22 14:28:54;;;;;;;;;25.50;21.75;;;;;;;;6489794;39;8942;-59
2024/03/22 14:34:57;;;;;;;;;33.00;30.50;;;;;;;;6467607;46;9926;-61
2024/03/22 14:40:59;;;;;;;;;21.00;20.00;;;;;;;;6487954;39;8899;-58
2024/03/22 14:47:02;;;;;;;;;22.33;20.00;;;;;;;;6490777;46;8976;-59
2024/03/22 14:53:04;;;;;;;;;18.75;18.25;;;;;;;;6491163;31;9664;-59
2024/03/22 14:59:05;;;;;;;;;21.25;18.75;;;;;;;;6490845;39;9626;-59
2024/03/22 15:05:10;;;;;;;;;22.33;18.33;;;;;;;;6491187;39;8991;-60
2024/03/22 15:11:12;;;;;;;;;27.50;25.00;;;;;;;;6526927;36;8903;-60
2024/03/22 15:17:15;;;;;;;;;24.50;23.25;;;;;;;;6490278;39;8966;-59
2024/03/22 15:23:22;;;;;;;;;24.25;23.25;;;;;;;;6491247;39;8858;-60
2024/03/22 15:29:24;;;;;;;;;28.00;24.50;;;;;;;;6490580;39;9576;-59
2024/03/22 15:35:30;;;;;;;;;26.25;25.00;;;;;;;;6489899;39;9540;-60
2024/03/22 15:41:32;;;;;;;;;24.00;22.25;;;;;;;;6490020;46;8940;-58
2024/03/22 15:47:34;;;;;;;;;27.75;25.00;;;;;;;;6490584;39;9000;-58
2024/03/22 15:53:35;;;;;;;;;26.50;24.75;;;;;;;;6490016;39;9560;-58
2024/03/22 15:59:40;;;;;;;;;28.00;24.25;;;;;;;;6490256;46;8979;-59
2024/03/22 16:05:50;;;;;;;;;24.00;24.00;;;;;;;;6490303;39;8963;-60
2024/03/22 16:11:52;;;;;;;;;21.25;20.50;;;;;;;;6490782;39;9090;-60
2024/03/22 16:17:55;;;;;;;;;29.00;25.75;;;;;;;;6490546;31;8949;-59
2024/03/22 16:23:58;;;;;;;;;28.25;27.00;;;;;;;;6490068;39;8917;-59
2024/03/22 16:30:00;;;;;;;;;34.25;26.25;;;;;;;;6490227;31;8951;-59
2024/03/22 16:36:04;;;;;;;;;25.75;24.50;;;;;;;;6490051;46;9003;-58
2024/03/22 16:42:06;;;;;;;;;31.75;29.75;;;;;;;;6489945;46;8951;-57
2024/03/22 16:48:08;;;;;;;;;28.00;22.25;;;;;;;;6490757;31;8949;-60
2024/03/22 16:54:09;;;;;;;;;35.50;31.25;;;;;;;;6489708;39;9063;-61
2024/03/22 17:00:14;;;;;;;;;26.75;26.75;;;;;;;;6489285;39;8982;-60
2024/03/22 17:06:18;;;;;;;;;34.75;33.50;;;;;;;;6489962;39;8957;-59
2024/03/22 17:12:24;;;;;;;;;34.25;29.00;;;;;;;;6490134;39;8907;-58
2024/03/22 17:18:26;;;;;;;;;40.00;35.50;;;;;;;;6489891;39;8956;-60
2024/03/22 17:24:28;;;;;;;;;32.25;30.50;;;;;;;;6489343;47;8892;-60
2024/03/22 17:30:30;;;;;;;;;36.50;31.25;;;;;;;;6489777;39;9495;-57
2024/03/22 17:36:33;;;;;;;;;38.50;34.50;;;;;;;;6488448;39;9042;-59
2024/03/22 17:42:34;;;;;;;;;45.00;39.50;;;;;;;;6491384;46;9023;-59
2024/03/22 17:48:37;;;;;;;;;44.00;39.25;;;;;;;;6491431;46;8964;-60
2024/03/22 17:54:38;;;;;;;;;47.75;39.00;;;;;;;;6492608;31;8923;-56
2024/03/22 18:00:40;;;;;;;;;38.50;36.75;;;;;;;;6491522;31;8983;-58
2024/03/22 18:06:41;;;;;;;;;56.50;46.00;;;;;;;;6488277;39;8918;-58
2024/03/22 18:12:43;;;;;;;;;58.25;46.25;;;;;;;;6492243;39;8861;-55
2024/03/22 18:18:44;;;;;;;;;52.75;45.25;;;;;;;;6492186;31;8934;-58
2024/03/22 18:24:47;;;;;;;;;47.50;41.00;;;;;;;;6492254;46;9005;-57
2024/03/22 18:30:48;;;;;;;;;47.75;40.75;;;;;;;;6491517;39;9913;-58
2024/03/22 18:36:48;;;;;;;;;51.00;41.75;;;;;;;;6491841;39;8904;-59
2024/03/22 18:42:56;;;;;;;;;45.25;41.25;;;;;;;;6491439;39;8878;-56
2024/03/22 18:48:58;;;;;;;;;48.00;39.50;;;;;;;;6491771;39;8889;-58
2024/03/22 18:55:03;;;;;;;;;56.50;45.50;;;;;;;;6491834;39;9068;-56
2024/03/22 19:01:08;;;;;;;;;52.25;40.00;;;;;;;;6489957;46;8900;-59
2024/03/22 19:07:09;;;;;;;;;42.00;31.50;;;;;;;;6491706;39;9008;-57
2024/03/22 19:13:10;;;;;;;;;53.75;43.75;;;;;;;;6491053;39;8920;-57
2024/03/22 19:19:13;;;;;;;;;57.75;47.50;;;;;;;;6491486;39;9049;-57
2024/03/22 19:25:14;;;;;;;;;62.25;50.75;;;;;;;;6491048;46;8857;-58
2024/03/22 19:31:17;;;;;;;;;48.25;40.50;;;;;;;;6491181;39;8862;-57
2024/03/22 19:37:18;;;;;;;;;52.50;43.50;;;;;;;;6491865;39;8905;-56
2024/03/22 19:43:19;;;;;;;;;57.00;47.75;;;;;;;;6490606;46;8878;-57
2024/03/22 19:49:21;;;;;;;;;59.00;49.00;;;;;;;;6491342;39;10305;-56
2024/03/22 19:55:23;;;;;;;;;56.25;48.25;;;;;;;;6492076;39;8921;-56
2024/03/22 20:01:25;;;;;;;;;54.75;42.00;;;;;;;;6491010;31;8901;-58
2024/03/22 20:07:28;;;;;;;;;48.75;41.25;;;;;;;;6490810;46;8926;-57
2024/03/22 20:13:29;;;;;;;;;44.75;39.50;;;;;;;;6490764;39;9056;-58
2024/03/22 20:19:30;;;;;;;;;43.75;39.75;;;;;;;;6490901;39;8984;-58
2024/03/22 20:25:35;;;;;;;;;46.00;39.50;;;;;;;;6490475;46;8864;-58
2024/03/22 20:31:42;;;;;;;;;39.25;38.00;;;;;;;;6490904;46;8924;-57
2024/03/22 20:37:44;;;;;;;;;43.25;37.25;;;;;;;;6490640;46;8864;-58
2024/03/22 20:43:46;;;;;;;;;42.00;38.25;;;;;;;;6490323;39;9670;-56
2024/03/22 20:49:49;;;;;;;;;39.00;36.00;;;;;;;;6491107;31;8849;-58
2024/03/22 20:55:51;;;;;;;;;45.75;35.25;;;;;;;;6490868;46;8941;-56
2024/03/22 21:01:55;;;;;;;;;44.00;40.00;;;;;;;;6490330;39;9096;-57
2024/03/22 21:07:59;;;;;;;;;60.00;48.75;;;;;;;;6490890;39;9598;-57
2024/03/22 21:14:03;;;;;;;;;46.50;42.25;;;;;;;;6309131;46;9999850;-59
2024/03/22 21:20:10;;;;;;;;;45.75;39.25;;;;;;;;6490609;39;8920;-58
2024/03/22 21:26:12;;;;;;;;;46.00;38.00;;;;;;;;6490149;31;8968;-55
2024/03/22 21:32:15;;;;;;;;;44.50;39.00;;;;;;;;6489937;39;8925;-57
2024/03/22 21:38:19;;;;;;;;;46.00;42.00;;;;;;;;6490832;31;8924;-58
2024/03/22 21:44:21;;;;;;;;;53.50;47.00;;;;;;;;6489402;47;8928;-58
2024/03/22 21:50:22;;;;;;;;;63.50;51.00;;;;;;;;6488902;39;8877;-57
2024/03/22 21:56:25;;;;;;;;;50.50;42.50;;;;;;;;6490165;39;8921;-58
2024/03/22 22:02:26;;;;;;;;;39.50;39.00;;;;;;;;6490788;39;8959;-57
2024/03/22 22:08:30;;;;;;;;;36.50;35.25;;;;;;;;6489516;47;9033;-56
2024/03/22 22:14:35;;;;;;;;;38.75;36.00;;;;;;;;6489564;31;9088;-57
2024/03/22 22:20:38;;;;;;;;;38.75;34.75;;;;;;;;6489764;47;8866;-56
2024/03/22 22:26:41;;;;;;;;;35.00;32.75;;;;;;;;6491514;46;8892;-58
2024/03/22 22:32:45;;;;;;;;;35.75;33.75;;;;;;;;6491583;31;8866;-56
2024/03/22 22:38:46;;;;;;;;;44.00;38.75;;;;;;;;6491450;46;9107;-57
2024/03/22 22:44:47;;;;;;;;;40.00;36.75;;;;;;;;6490183;46;9013;-57
2024/03/22 22:50:48;;;;;;;;;37.50;34.75;;;;;;;;6490877;39;8916;-57
2024/03/22 22:56:51;;;;;;;;;46.75;38.25;;;;;;;;6491654;39;8922;-55
2024/03/22 23:02:56;;;;;;;;;37.50;36.25;;;;;;;;6491459;39;9619;-55
2024/03/22 23:08:57;;;;;;;;;41.00;34.75;;;;;;;;6491056;46;8909;-55
2024/03/22 23:14:58;;;;;;;;;29.75;25.75;;;;;;;;6491491;39;8933;-57
2024/03/22 23:21:01;;;;;;;;;36.75;32.25;;;;;;;;6492048;39;8846;-56
2024/03/22 23:27:04;;;;;;;;;34.75;31.00;;;;;;;;6490963;46;8895;-56
2024/03/22 23:33:06;;;;;;;;;40.75;33.75;;;;;;;;6490471;39;9498;-54
2024/03/22 23:39:09;;;;;;;;;38.00;34.00;;;;;;;;6490540;39;8971;-56
2024/03/22 23:45:10;;;;;;;;;37.50;36.00;;;;;;;;6490539;39;9593;-56
2024/03/22 23:51:10;;;;;;;;;47.75;41.00;;;;;;;;6491103;39;8948;-55
2024/03/22 23:57:14;;;;;;;;;50.25;44.00;;;;;;;;6489892;46;8941;-55
